createdAt,value
2018-07-13T00:00:15.468Z,17.12
2018-07-13T00:01:15.471Z,17.19
2018-07-13T00:02:15.472Z,17.15
2018-07-13T00:03:15.471Z,17.27
2018-07-13T00:04:15.473Z,17.22
2018-07-13T00:05:15.474Z,17.16
2018-07-13T00:06:15.478Z,17.20
2018-07-13T00:07:15.479Z,17.23
2018-07-13T00:08:15.481Z,17.19
2018-07-13T00:09:15.485Z,17.23
2018-07-13T00:10:15.485Z,17.15
2018-07-13T00:11:15.486Z,17.14
2018-07-13T00:12:15.488Z,17.16
2018-07-13T00:13:15.493Z,17.04
2018-07-13T00:14:15.491Z,17.08
2018-07-13T00:15:15.494Z,17.06
2018-07-13T00:16:15.494Z,16.99
2018-07-13T00:17:15.497Z,17.05
2018-07-13T00:18:15.498Z,17.02
2018-07-13T00:19:15.500Z,16.99
2018-07-13T00:20:15.501Z,16.93
2018-07-13T00:21:15.501Z,17.02
2018-07-13T00:22:15.504Z,16.94
2018-07-13T00:23:15.505Z,16.86
2018-07-13T00:24:15.507Z,16.86
2018-07-13T00:25:15.508Z,16.84
2018-07-13T00:26:15.510Z,16.83
2018-07-13T00:27:15.512Z,16.84
2018-07-13T00:28:15.513Z,16.81
2018-07-13T00:29:15.514Z,16.86
2018-07-13T00:30:15.517Z,16.76
2018-07-13T00:31:15.518Z,16.69
2018-07-13T00:32:15.523Z,16.83
2018-07-13T00:33:15.519Z,16.75
2018-07-13T00:34:15.523Z,16.74
2018-07-13T00:35:15.523Z,16.79
2018-07-13T00:36:15.526Z,16.83
2018-07-13T00:37:15.525Z,16.72
2018-07-13T00:38:15.532Z,16.71
2018-07-13T00:39:15.528Z,16.61
2018-07-13T00:40:15.530Z,16.60
2018-07-13T00:41:15.531Z,16.64
2018-07-13T00:42:15.533Z,16.54
2018-07-13T00:43:15.535Z,16.61
2018-07-13T00:44:15.537Z,16.51
2018-07-13T00:45:15.536Z,16.61
2018-07-13T00:46:15.539Z,16.60
2018-07-13T00:47:15.540Z,16.56
2018-07-13T00:48:15.540Z,16.56
2018-07-13T00:49:15.543Z,16.51
2018-07-13T00:50:15.544Z,16.42
2018-07-13T00:51:15.545Z,16.33
2018-07-13T00:52:15.545Z,16.43
2018-07-13T00:53:15.546Z,16.43
2018-07-13T00:54:15.548Z,16.50
2018-07-13T00:55:15.550Z,16.43
2018-07-13T00:56:15.551Z,16.41
2018-07-13T00:57:15.551Z,16.36
2018-07-13T00:58:15.553Z,16.28
2018-07-13T00:59:15.554Z,16.38
2018-07-13T01:00:15.556Z,16.29
2018-07-13T01:01:15.555Z,16.23
2018-07-13T01:02:15.557Z,16.29
2018-07-13T01:03:15.558Z,16.24
2018-07-13T01:04:15.561Z,16.29
2018-07-13T01:05:15.560Z,16.32
2018-07-13T01:06:15.563Z,16.24
2018-07-13T01:07:15.562Z,16.20
2018-07-13T01:08:15.564Z,16.16
2018-07-13T01:09:15.565Z,16.21
2018-07-13T01:10:15.567Z,16.16
2018-07-13T01:11:15.568Z,16.09
2018-07-13T01:12:15.568Z,16.09
2018-07-13T01:13:15.568Z,16.08
2018-07-13T01:14:15.574Z,16.09
2018-07-13T01:15:15.573Z,16.05
2018-07-13T01:16:15.572Z,16.12
2018-07-13T01:17:15.576Z,16.04
2018-07-13T01:18:15.574Z,15.98
2018-07-13T01:19:15.577Z,15.95
2018-07-13T01:20:15.577Z,15.92
2018-07-13T01:21:15.589Z,15.97
2018-07-13T01:22:15.578Z,15.98
2018-07-13T01:23:15.584Z,15.90
2018-07-13T01:24:15.581Z,15.80
2018-07-13T01:25:15.580Z,15.88
2018-07-13T01:26:15.583Z,15.84
2018-07-13T01:27:15.585Z,15.77
2018-07-13T01:28:15.584Z,15.83
2018-07-13T01:29:15.584Z,15.83
2018-07-13T01:30:15.587Z,15.76
2018-07-13T01:31:15.586Z,15.76
2018-07-13T01:32:15.597Z,15.79
2018-07-13T01:33:15.588Z,15.75
2018-07-13T01:34:15.588Z,15.67
2018-07-13T01:35:15.591Z,15.68
2018-07-13T01:36:15.591Z,15.59
2018-07-13T01:37:15.594Z,15.61
2018-07-13T01:38:15.591Z,15.68
2018-07-13T01:39:15.593Z,15.64
2018-07-13T01:40:15.593Z,15.64
2018-07-13T01:41:15.594Z,15.59
2018-07-13T01:42:15.597Z,15.59
2018-07-13T01:43:15.596Z,15.55
2018-07-13T01:44:15.597Z,15.55
2018-07-13T01:45:15.597Z,15.52
2018-07-13T01:46:15.599Z,15.54
2018-07-13T01:47:15.599Z,15.52
2018-07-13T01:48:15.601Z,15.49
2018-07-13T01:49:15.600Z,15.40
2018-07-13T01:50:15.601Z,15.46
2018-07-13T01:51:15.605Z,15.51
2018-07-13T01:52:15.604Z,15.39
2018-07-13T01:53:15.602Z,15.44
2018-07-13T01:54:15.604Z,15.40
2018-07-13T01:55:15.606Z,15.36
2018-07-13T01:56:15.607Z,15.35
2018-07-13T01:57:15.605Z,15.42
2018-07-13T01:58:15.606Z,15.39
2018-07-13T01:59:15.608Z,15.42
2018-07-13T02:00:15.608Z,15.35
2018-07-13T02:01:15.611Z,15.33
2018-07-13T02:02:15.608Z,15.31
2018-07-13T02:03:15.609Z,15.36
2018-07-13T02:04:15.610Z,15.22
2018-07-13T02:05:15.610Z,15.24
2018-07-13T02:06:15.612Z,15.21
2018-07-13T02:07:15.611Z,15.22
2018-07-13T02:08:15.613Z,15.14
2018-07-13T02:09:15.613Z,15.15
2018-07-13T02:10:15.613Z,15.22
2018-07-13T02:11:15.613Z,15.17
2018-07-13T02:12:15.615Z,15.17
2018-07-13T02:13:15.614Z,15.18
2018-07-13T02:14:15.622Z,15.10
2018-07-13T02:15:15.616Z,15.14
2018-07-13T02:16:15.619Z,15.14
2018-07-13T02:17:15.616Z,15.15
2018-07-13T02:18:15.616Z,15.17
2018-07-13T02:19:15.617Z,15.11
2018-07-13T02:20:15.618Z,15.02
2018-07-13T02:21:15.619Z,15.17
2018-07-13T02:22:15.620Z,15.11
2018-07-13T02:23:15.619Z,15.02
2018-07-13T02:24:15.621Z,15.03
2018-07-13T02:25:15.622Z,14.99
2018-07-13T02:26:15.620Z,15.00
2018-07-13T02:27:15.622Z,14.92
2018-07-13T02:28:15.622Z,15.00
2018-07-13T02:29:15.621Z,14.91
2018-07-13T02:30:15.635Z,14.89
2018-07-13T02:31:15.624Z,14.88
2018-07-13T02:32:15.624Z,14.88
2018-07-13T02:33:15.624Z,14.84
2018-07-13T02:34:15.630Z,14.82
2018-07-13T02:35:15.625Z,14.81
2018-07-13T02:36:15.626Z,14.78
2018-07-13T02:37:15.629Z,14.79
2018-07-13T02:38:15.626Z,14.72
2018-07-13T02:39:15.627Z,14.70
2018-07-13T02:40:15.626Z,14.72
2018-07-13T02:41:15.627Z,14.73
2018-07-13T02:42:15.631Z,14.73
2018-07-13T02:43:15.629Z,14.60
2018-07-13T02:44:15.627Z,14.69
2018-07-13T02:45:15.628Z,14.73
2018-07-13T02:46:15.629Z,14.70
2018-07-13T02:47:15.629Z,14.65
2018-07-13T02:48:15.644Z,14.60
2018-07-13T02:49:15.630Z,14.60
2018-07-13T02:50:15.629Z,14.73
2018-07-13T02:51:15.631Z,14.70
2018-07-13T02:52:15.632Z,14.66
2018-07-13T02:53:15.631Z,14.70
2018-07-13T02:54:15.630Z,14.70
2018-07-13T02:55:15.632Z,14.79
2018-07-13T02:56:15.633Z,14.65
2018-07-13T02:57:15.633Z,14.59
2018-07-13T02:58:15.633Z,14.60
2018-07-13T02:59:15.632Z,14.54
2018-07-13T03:00:15.635Z,14.47
2018-07-13T03:01:15.632Z,14.59
2018-07-13T03:02:15.634Z,14.54
2018-07-13T03:03:15.634Z,14.51
2018-07-13T03:04:15.635Z,14.50
2018-07-13T03:05:15.641Z,14.51
2018-07-13T03:06:15.634Z,14.54
2018-07-13T03:07:15.636Z,14.50
2018-07-13T03:08:15.650Z,14.53
2018-07-13T03:09:15.635Z,14.54
2018-07-13T03:10:15.636Z,14.43
2018-07-13T03:11:15.637Z,14.53
2018-07-13T03:12:15.637Z,14.50
2018-07-13T03:13:15.637Z,14.50
2018-07-13T03:14:15.638Z,14.50
2018-07-13T03:15:15.638Z,14.53
2018-07-13T03:16:15.640Z,14.53
2018-07-13T03:17:15.640Z,14.55
2018-07-13T03:18:15.639Z,14.68
2018-07-13T03:19:15.643Z,14.65
2018-07-13T03:20:15.641Z,14.68
2018-07-13T03:21:15.644Z,14.72
2018-07-13T03:22:15.760Z,14.63
2018-07-13T03:23:15.648Z,14.72
2018-07-13T03:24:15.643Z,14.69
2018-07-13T03:25:15.642Z,14.78
2018-07-13T03:26:15.642Z,14.78
2018-07-13T03:27:15.642Z,14.91
2018-07-13T03:28:15.644Z,14.82
2018-07-13T03:29:15.645Z,14.79
2018-07-13T03:30:15.643Z,14.94
2018-07-13T03:31:15.645Z,14.89
2018-07-13T03:32:15.645Z,14.91
2018-07-13T03:33:15.645Z,14.94
2018-07-13T03:34:15.647Z,14.92
2018-07-13T03:35:15.647Z,14.88
2018-07-13T03:36:15.648Z,14.99
2018-07-13T03:37:15.648Z,14.94
2018-07-13T03:38:15.651Z,14.97
2018-07-13T03:39:15.649Z,14.92
2018-07-13T03:40:15.650Z,15.00
2018-07-13T03:41:15.649Z,14.96
2018-07-13T03:42:15.650Z,14.99
2018-07-13T03:43:15.656Z,15.04
2018-07-13T03:44:15.651Z,15.06
2018-07-13T03:45:15.652Z,15.02
2018-07-13T03:46:15.652Z,15.17
2018-07-13T03:47:15.654Z,15.15
2018-07-13T03:48:15.658Z,15.15
2018-07-13T03:49:15.653Z,15.17
2018-07-13T03:50:15.654Z,15.27
2018-07-13T03:51:15.656Z,15.19
2018-07-13T03:52:15.657Z,15.27
2018-07-13T03:53:15.657Z,15.27
2018-07-13T03:54:15.732Z,15.25
2018-07-13T03:55:15.659Z,15.15
2018-07-13T03:56:15.661Z,15.17
2018-07-13T03:57:15.660Z,15.10
2018-07-13T03:58:15.659Z,15.19
2018-07-13T03:59:15.661Z,15.18
2018-07-13T04:00:15.662Z,15.11
2018-07-13T04:01:15.662Z,15.25
2018-07-13T04:02:15.663Z,15.27
2018-07-13T04:03:15.664Z,15.24
2018-07-13T04:04:15.664Z,15.27
2018-07-13T04:05:15.667Z,15.28
2018-07-13T04:06:15.666Z,15.29
2018-07-13T04:07:15.667Z,15.40
2018-07-13T04:08:15.668Z,15.46
2018-07-13T04:09:15.667Z,15.47
2018-07-13T04:10:15.668Z,15.49
2018-07-13T04:11:15.669Z,15.55
2018-07-13T04:12:15.671Z,15.57
2018-07-13T04:13:15.671Z,15.62
2018-07-13T04:14:15.671Z,15.49
2018-07-13T04:15:15.672Z,15.58
2018-07-13T04:16:15.673Z,15.49
2018-07-13T04:17:15.674Z,15.55
2018-07-13T04:18:15.676Z,15.52
2018-07-13T04:19:15.680Z,15.57
2018-07-13T04:20:15.678Z,15.52
2018-07-13T04:21:15.676Z,15.51
2018-07-13T04:22:15.677Z,15.54
2018-07-13T04:23:15.681Z,15.57
2018-07-13T04:24:15.680Z,15.59
2018-07-13T04:25:15.680Z,15.52
2018-07-13T04:26:15.681Z,15.51
2018-07-13T04:27:15.684Z,15.42
2018-07-13T04:28:15.684Z,15.46
2018-07-13T04:29:15.684Z,15.43
2018-07-13T04:30:15.684Z,15.49
2018-07-13T04:31:15.685Z,15.52
2018-07-13T04:32:15.686Z,15.40
2018-07-13T04:33:15.686Z,15.47
2018-07-13T04:34:15.715Z,15.55
2018-07-13T04:35:15.689Z,15.55
2018-07-13T04:36:15.690Z,15.59
2018-07-13T04:37:15.689Z,15.57
2018-07-13T04:38:15.693Z,15.58
2018-07-13T04:39:15.691Z,15.62
2018-07-13T04:40:15.693Z,15.57
2018-07-13T04:41:15.694Z,15.64
2018-07-13T04:42:15.694Z,15.58
2018-07-13T04:43:15.695Z,15.58
2018-07-13T04:44:15.696Z,15.58
2018-07-13T04:45:15.696Z,15.57
2018-07-13T04:46:15.697Z,15.65
2018-07-13T04:47:15.699Z,15.57
2018-07-13T04:48:15.699Z,15.54
2018-07-13T04:49:15.699Z,15.49
2018-07-13T04:50:15.730Z,15.55
2018-07-13T04:51:15.701Z,15.67
2018-07-13T04:52:15.703Z,15.70
2018-07-13T04:53:15.702Z,15.70
2018-07-13T04:54:15.705Z,15.77
2018-07-13T04:55:15.704Z,15.72
2018-07-13T04:56:15.706Z,15.68
2018-07-13T04:57:15.706Z,15.75
2018-07-13T04:58:15.709Z,15.88
2018-07-13T04:59:15.709Z,15.82
2018-07-13T05:00:15.711Z,15.90
2018-07-13T05:01:15.711Z,15.94
2018-07-13T05:02:15.712Z,16.00
2018-07-13T05:03:15.713Z,15.84
2018-07-13T05:04:15.714Z,15.83
2018-07-13T05:05:15.715Z,15.86
2018-07-13T05:06:15.740Z,15.84
2018-07-13T05:07:15.719Z,15.95
2018-07-13T05:08:15.718Z,15.94
2018-07-13T05:09:15.720Z,15.94
2018-07-13T05:10:15.720Z,15.97
2018-07-13T05:11:15.721Z,15.94
2018-07-13T05:12:15.724Z,15.91
2018-07-13T05:13:15.724Z,15.98
2018-07-13T05:14:15.725Z,15.83
2018-07-13T05:15:15.726Z,15.84
2018-07-13T05:16:15.728Z,15.73
2018-07-13T05:17:15.727Z,15.77
2018-07-13T05:18:15.730Z,15.82
2018-07-13T05:19:15.735Z,15.88
2018-07-13T05:20:15.732Z,15.86
2018-07-13T05:21:15.774Z,15.84
2018-07-13T05:22:15.737Z,15.86
2018-07-13T05:23:15.735Z,15.92
2018-07-13T05:24:15.741Z,16.02
2018-07-13T05:25:15.737Z,16.02
2018-07-13T05:26:15.739Z,16.09
2018-07-13T05:27:15.743Z,16.13
2018-07-13T05:28:15.741Z,16.01
2018-07-13T05:29:15.742Z,15.97
2018-07-13T05:30:15.744Z,16.09
2018-07-13T05:31:15.746Z,16.13
2018-07-13T05:32:15.748Z,16.02
2018-07-13T05:33:15.749Z,16.05
2018-07-13T05:34:15.748Z,16.10
2018-07-13T05:35:15.752Z,16.21
2018-07-13T05:36:15.752Z,16.12
2018-07-13T05:37:15.754Z,16.12
2018-07-13T05:38:15.804Z,16.10
2018-07-13T05:39:15.756Z,16.12
2018-07-13T05:40:15.759Z,16.05
2018-07-13T05:41:15.759Z,16.05
2018-07-13T05:42:15.760Z,16.09
2018-07-13T05:43:15.762Z,16.13
2018-07-13T05:44:15.767Z,16.13
2018-07-13T05:45:15.762Z,16.10
2018-07-13T05:46:15.764Z,16.12
2018-07-13T05:47:15.766Z,16.13
2018-07-13T05:48:15.768Z,16.09
2018-07-13T05:49:15.769Z,16.13
2018-07-13T05:50:15.773Z,16.08
2018-07-13T05:51:15.771Z,16.20
2018-07-13T05:52:15.772Z,16.13
2018-07-13T05:53:15.773Z,16.15
2018-07-13T05:54:15.775Z,16.26
2018-07-13T05:55:15.776Z,16.31
2018-07-13T05:56:15.781Z,16.24
2018-07-13T05:57:15.779Z,16.23
2018-07-13T05:58:15.781Z,16.16
2018-07-13T05:59:15.781Z,16.17
2018-07-13T06:00:15.784Z,16.16
2018-07-13T06:01:15.786Z,16.12
2018-07-13T06:02:15.787Z,16.09
2018-07-13T06:03:15.788Z,16.16
2018-07-13T06:04:15.790Z,16.28
2018-07-13T06:05:15.791Z,16.28
2018-07-13T06:06:15.791Z,16.16
2018-07-13T06:07:15.793Z,16.23
2018-07-13T06:08:15.795Z,16.10
2018-07-13T06:09:15.796Z,16.15
2018-07-13T06:10:15.797Z,16.16
2018-07-13T06:11:15.800Z,16.17
2018-07-13T06:12:15.804Z,16.39
2018-07-13T06:13:15.805Z,16.43
2018-07-13T06:14:15.804Z,16.36
2018-07-13T06:15:15.805Z,16.50
2018-07-13T06:16:15.807Z,16.61
2018-07-13T06:17:15.807Z,16.69
2018-07-13T06:18:15.810Z,16.74
2018-07-13T06:19:15.811Z,16.68
2018-07-13T06:20:15.873Z,16.74
2018-07-13T06:21:15.813Z,16.78
2018-07-13T06:22:15.815Z,16.75
2018-07-13T06:23:15.817Z,16.72
2018-07-13T06:24:15.832Z,16.75
2018-07-13T06:25:15.821Z,16.81
2018-07-13T06:26:15.823Z,16.76
2018-07-13T06:27:15.823Z,16.78
2018-07-13T06:28:15.825Z,16.79
2018-07-13T06:29:15.831Z,16.74
2018-07-13T06:30:15.891Z,16.75
2018-07-13T06:31:15.865Z,16.81
2018-07-13T06:32:15.835Z,16.84
2018-07-13T06:33:15.834Z,16.86
2018-07-13T06:34:15.835Z,17.06
2018-07-13T06:35:15.837Z,17.01
2018-07-13T06:36:15.838Z,16.86
2018-07-13T06:37:15.843Z,16.79
2018-07-13T06:38:15.842Z,16.97
2018-07-13T06:39:15.844Z,17.06
2018-07-13T06:40:15.846Z,17.09
2018-07-13T06:41:15.848Z,16.96
2018-07-13T06:42:15.851Z,17.06
2018-07-13T06:43:15.851Z,16.99
2018-07-13T06:44:15.853Z,16.97
2018-07-13T06:45:15.854Z,16.91
2018-07-13T06:46:15.857Z,17.04
2018-07-13T06:47:15.859Z,17.11
2018-07-13T06:48:15.861Z,17.20
2018-07-13T06:49:15.862Z,17.02
2018-07-13T06:50:15.865Z,17.02
2018-07-13T06:51:15.866Z,16.84
2018-07-13T06:52:15.869Z,16.93
2018-07-13T06:53:15.871Z,17.01
2018-07-13T06:54:15.873Z,16.97
2018-07-13T06:55:15.874Z,17.11
2018-07-13T06:56:15.877Z,17.09
2018-07-13T06:57:15.878Z,17.01
2018-07-13T06:58:15.880Z,16.99
2018-07-13T06:59:15.884Z,17.06
2018-07-13T07:00:15.885Z,17.26
2018-07-13T07:01:15.888Z,17.39
2018-07-13T07:02:15.888Z,17.44
2018-07-13T07:03:15.896Z,17.56
2018-07-13T07:04:15.894Z,17.63
2018-07-13T07:05:15.895Z,17.72
2018-07-13T07:06:15.898Z,17.79
2018-07-13T07:07:15.902Z,17.85
2018-07-13T07:08:15.903Z,17.71
2018-07-13T07:09:15.907Z,17.74
2018-07-13T07:10:15.909Z,17.46
2018-07-13T07:11:15.910Z,17.54
2018-07-13T07:12:15.914Z,17.22
2018-07-13T07:13:15.916Z,17.19
2018-07-13T07:14:15.918Z,17.27
2018-07-13T07:15:15.922Z,17.45
2018-07-13T07:16:15.926Z,17.51
2018-07-13T07:17:15.925Z,17.86
2018-07-13T07:18:15.931Z,17.83
2018-07-13T07:19:15.931Z,17.92
2018-07-13T07:20:15.934Z,17.92
2018-07-13T07:21:15.936Z,18.16
2018-07-13T07:22:15.940Z,18.38
2018-07-13T07:23:15.944Z,18.77
2018-07-13T07:24:15.947Z,19.02
2018-07-13T07:25:15.948Z,18.90
2018-07-13T07:26:15.957Z,18.50
2018-07-13T07:27:15.955Z,18.55
2018-07-13T07:28:15.963Z,18.53
2018-07-13T07:29:15.961Z,18.40
2018-07-13T07:30:15.967Z,18.68
2018-07-13T07:31:15.969Z,18.73
2018-07-13T07:32:15.972Z,18.78
2018-07-13T07:33:15.977Z,18.66
2018-07-13T07:34:15.980Z,18.77
2018-07-13T07:36:14.342Z,18.81
2018-07-13T07:37:14.344Z,18.81
2018-07-13T07:38:14.349Z,18.71
2018-07-13T07:39:14.352Z,19.00
2018-07-13T07:40:14.355Z,19.34
2018-07-13T07:41:14.359Z,19.91
2018-07-13T07:42:14.365Z,20.39
2018-07-13T07:43:14.369Z,20.75
2018-07-13T07:44:14.376Z,20.93
2018-07-13T07:45:14.380Z,21.69
2018-07-13T07:46:14.386Z,21.64
2018-07-13T07:47:14.393Z,22.18
2018-07-13T07:48:14.401Z,22.15
2018-07-13T07:49:14.406Z,22.45
2018-07-13T07:50:14.414Z,22.22
2018-07-13T07:51:14.422Z,21.21
2018-07-13T07:52:14.430Z,21.50
2018-07-13T07:53:14.438Z,21.43
2018-07-13T07:54:14.452Z,20.97
2018-07-13T07:55:14.457Z,22.15
2018-07-13T07:56:14.479Z,22.17
2018-07-13T07:57:14.475Z,22.62
2018-07-13T07:58:14.483Z,22.98
2018-07-13T07:59:14.495Z,23.44
2018-07-13T08:00:14.503Z,22.59
2018-07-13T08:01:14.514Z,23.24
2018-07-13T08:02:14.524Z,23.08
2018-07-13T08:03:14.535Z,23.54
2018-07-13T08:04:14.546Z,24.24
2018-07-13T08:05:14.556Z,24.84
2018-07-13T08:06:14.684Z,25.17
2018-07-13T08:07:14.955Z,25.22
2018-07-13T08:08:14.593Z,25.58
2018-07-13T08:09:14.604Z,25.40
2018-07-13T08:10:14.617Z,25.17
2018-07-13T08:11:14.629Z,24.96
2018-07-13T08:12:14.642Z,24.98
2018-07-13T08:13:14.654Z,25.65
2018-07-13T08:14:14.836Z,26.07
2018-07-13T08:15:14.683Z,26.40
2018-07-13T08:16:14.694Z,26.83
2018-07-13T08:17:14.708Z,26.93
2018-07-13T08:18:14.723Z,26.63
2018-07-13T08:19:14.738Z,25.68
2018-07-13T08:20:14.751Z,25.29
2018-07-13T08:21:14.763Z,25.10
2018-07-13T08:22:14.782Z,25.06
2018-07-13T08:23:14.794Z,24.84
2018-07-13T08:24:14.808Z,24.96
2018-07-13T08:25:14.822Z,25.04
2018-07-13T08:26:14.837Z,25.46
2018-07-13T08:27:14.851Z,25.63
2018-07-13T08:28:14.866Z,25.32
2018-07-13T08:29:14.880Z,25.65
2018-07-13T08:30:14.896Z,26.06
2018-07-13T08:31:14.911Z,26.36
2018-07-13T08:32:14.927Z,26.36
2018-07-13T08:33:14.939Z,25.54
2018-07-13T08:34:14.955Z,25.35
2018-07-13T08:35:14.970Z,25.04
2018-07-13T08:36:14.984Z,25.47
2018-07-13T08:37:14.999Z,25.91
2018-07-13T08:38:15.015Z,25.88
2018-07-13T08:39:15.030Z,26.78
2018-07-13T08:40:15.046Z,27.30
2018-07-13T08:41:15.059Z,26.78
2018-07-13T08:42:15.074Z,26.40
2018-07-13T08:43:15.090Z,26.22
2018-07-13T08:44:15.104Z,25.88
2018-07-13T08:45:15.118Z,25.70
2018-07-13T08:46:15.135Z,25.95
2018-07-13T08:47:15.150Z,26.40
2018-07-13T08:48:15.165Z,26.25
2018-07-13T08:49:15.180Z,26.66
2018-07-13T08:50:15.201Z,27.39
2018-07-13T08:51:15.266Z,26.60
2018-07-13T08:52:15.228Z,26.21
2018-07-13T08:53:15.243Z,25.85
2018-07-13T08:54:15.257Z,26.09
2018-07-13T08:55:15.271Z,26.88
2018-07-13T08:56:15.317Z,26.38
2018-07-13T08:57:15.301Z,26.18
2018-07-13T08:58:15.317Z,25.73
2018-07-13T08:59:15.332Z,26.13
2018-07-13T09:00:15.349Z,26.13
2018-07-13T09:01:15.363Z,26.68
2018-07-13T09:02:15.379Z,26.97
2018-07-13T09:03:15.395Z,27.33
2018-07-13T09:04:15.430Z,27.83
2018-07-13T09:05:15.425Z,27.89
2018-07-13T09:06:15.444Z,27.47
2018-07-13T09:07:15.458Z,27.42
2018-07-13T09:08:15.470Z,27.74
2018-07-13T09:09:15.486Z,28.14
2018-07-13T09:10:15.501Z,27.63
2018-07-13T09:11:15.517Z,27.80
2018-07-13T09:12:15.532Z,27.44
2018-07-13T09:13:15.548Z,27.32
2018-07-13T09:14:15.564Z,27.26
2018-07-13T09:15:15.591Z,27.35
2018-07-13T09:16:15.597Z,27.29
2018-07-13T09:17:15.610Z,27.30
2018-07-13T09:18:15.638Z,27.48
2018-07-13T09:19:15.642Z,28.14
2018-07-13T09:20:15.656Z,28.51
2018-07-13T09:21:15.673Z,28.79
2018-07-13T09:22:15.688Z,28.74
2018-07-13T09:23:15.703Z,28.41
2018-07-13T09:24:15.720Z,28.54
2018-07-13T09:25:15.735Z,29.14
2018-07-13T09:26:15.750Z,29.72
2018-07-13T09:27:15.766Z,28.76
2018-07-13T09:28:15.782Z,28.62
2018-07-13T09:29:15.799Z,28.41
2018-07-13T09:30:15.814Z,28.44
2018-07-13T09:31:15.872Z,28.54
2018-07-13T09:32:15.846Z,28.41
2018-07-13T09:33:15.861Z,28.76
2018-07-13T09:34:15.877Z,28.81
2018-07-13T09:35:15.910Z,29.10
2018-07-13T09:36:15.910Z,28.96
2018-07-13T09:37:15.924Z,28.75
2018-07-13T09:38:16.010Z,28.47
2018-07-13T09:39:15.956Z,26.70
2018-07-13T09:40:15.972Z,26.73
2018-07-13T09:41:15.987Z,27.35
2018-07-13T09:42:16.003Z,27.08
2018-07-13T09:43:16.022Z,26.89
2018-07-13T09:44:16.036Z,27.18
2018-07-13T09:45:16.052Z,27.65
2018-07-13T09:46:16.071Z,27.18
2018-07-13T09:47:16.088Z,27.64
2018-07-13T09:48:16.099Z,28.19
2018-07-13T09:49:16.113Z,28.81
2018-07-13T09:50:16.129Z,29.16
2018-07-13T09:51:16.145Z,29.49
2018-07-13T09:52:16.160Z,29.44
2018-07-13T09:53:16.176Z,28.66
2018-07-13T09:54:16.264Z,28.29
2018-07-13T09:55:16.208Z,28.35
2018-07-13T09:56:16.223Z,28.75
2018-07-13T09:57:16.245Z,28.56
2018-07-13T09:58:16.309Z,28.79
2018-07-13T09:59:16.270Z,28.25
2018-07-13T10:00:16.286Z,28.76
2018-07-13T10:01:16.301Z,28.38
2018-07-13T10:02:16.316Z,29.08
2018-07-13T10:03:16.334Z,29.69
2018-07-13T10:04:16.348Z,30.40
2018-07-13T10:05:16.372Z,30.69
2018-07-13T10:06:16.382Z,29.72
2018-07-13T10:07:16.395Z,29.14
2018-07-13T10:08:16.411Z,28.82
2018-07-13T10:09:16.427Z,28.67
2018-07-13T10:10:16.442Z,28.35
2018-07-13T10:11:16.457Z,28.38
2018-07-13T10:12:16.472Z,28.57
2018-07-13T10:13:16.524Z,28.81
2018-07-13T10:14:16.504Z,29.10
2018-07-13T10:15:16.519Z,29.29
2018-07-13T10:16:16.535Z,28.82
2018-07-13T10:17:16.551Z,28.17
2018-07-13T10:18:16.564Z,28.27
2018-07-13T10:19:16.580Z,28.88
2018-07-13T10:20:16.596Z,29.29
2018-07-13T10:21:16.609Z,28.33
2018-07-13T10:22:16.626Z,28.22
2018-07-13T10:23:16.641Z,28.81
2018-07-13T10:24:16.658Z,28.12
2018-07-13T10:25:16.672Z,28.07
2018-07-13T10:26:16.686Z,28.75
2018-07-13T10:27:16.702Z,29.20
2018-07-13T10:28:16.717Z,28.76
2018-07-13T10:29:16.827Z,28.70
2018-07-13T10:30:16.748Z,28.64
2018-07-13T10:31:16.762Z,29.29
2018-07-13T10:32:16.779Z,29.38
2018-07-13T10:33:16.792Z,28.86
2018-07-13T10:34:16.808Z,28.17
2018-07-13T10:35:16.843Z,28.14
2018-07-13T10:36:16.840Z,28.49
2018-07-13T10:37:16.852Z,28.78
2018-07-13T10:38:16.868Z,29.04
2018-07-13T10:39:16.884Z,28.75
2018-07-13T10:40:16.899Z,28.85
2018-07-13T10:41:16.914Z,28.82
2018-07-13T10:42:16.927Z,29.05
2018-07-13T10:43:16.943Z,28.78
2018-07-13T10:44:16.958Z,28.98
2018-07-13T10:45:16.972Z,28.29
2018-07-13T10:46:17.019Z,28.81
2018-07-13T10:47:17.002Z,28.88
2018-07-13T10:48:17.017Z,29.44
2018-07-13T10:49:17.032Z,29.01
2018-07-13T10:50:17.045Z,28.69
2018-07-13T10:51:17.062Z,28.67
2018-07-13T10:52:17.076Z,28.75
2018-07-13T10:53:17.090Z,29.34
2018-07-13T10:54:17.104Z,29.79
2018-07-13T10:55:17.118Z,29.94
2018-07-13T10:56:17.134Z,29.61
2018-07-13T10:57:17.149Z,29.04
2018-07-13T10:58:17.166Z,28.84
2018-07-13T10:59:17.177Z,29.14
2018-07-13T11:00:17.193Z,29.13
2018-07-13T11:01:17.209Z,28.86
2018-07-13T11:02:17.221Z,28.89
2018-07-13T11:03:17.235Z,29.50
2018-07-13T11:04:17.250Z,29.20
2018-07-13T11:05:17.264Z,29.20
2018-07-13T11:06:17.279Z,29.29
2018-07-13T11:07:17.293Z,28.96
2018-07-13T11:08:17.308Z,28.76
2018-07-13T11:09:17.322Z,28.38
2018-07-13T11:10:17.336Z,28.78
2018-07-13T11:11:17.349Z,29.05
2018-07-13T11:12:17.364Z,28.91
2018-07-13T11:13:17.377Z,28.44
2018-07-13T11:14:17.393Z,27.87
2018-07-13T11:15:17.406Z,27.55
2018-07-13T11:16:17.423Z,27.96
2018-07-13T11:17:17.434Z,28.57
2018-07-13T11:18:17.447Z,28.93
2018-07-13T11:19:17.463Z,28.97
2018-07-13T11:20:17.475Z,28.91
2018-07-13T11:21:17.489Z,28.32
2018-07-13T11:22:17.502Z,28.30
2018-07-13T11:23:17.521Z,27.86
2018-07-13T11:24:17.541Z,27.67
2018-07-13T11:25:17.543Z,27.32
2018-07-13T11:26:17.556Z,27.18
2018-07-13T11:27:17.573Z,27.07
2018-07-13T11:28:17.583Z,26.90
2018-07-13T11:29:17.596Z,26.37
2018-07-13T11:30:17.609Z,26.16
2018-07-13T11:31:17.623Z,26.15
2018-07-13T11:32:17.635Z,26.22
2018-07-13T11:33:17.647Z,26.43
2018-07-13T11:34:17.659Z,26.75
2018-07-13T11:35:17.674Z,26.41
2018-07-13T11:36:17.690Z,26.09
2018-07-13T11:37:17.836Z,25.75
2018-07-13T11:38:17.708Z,25.70
2018-07-13T11:39:17.728Z,25.69
2018-07-13T11:40:17.732Z,25.73
2018-07-13T11:41:17.748Z,25.68
2018-07-13T11:42:17.755Z,25.91
2018-07-13T11:43:17.767Z,25.59
2018-07-13T11:44:17.811Z,25.91
2018-07-13T11:45:17.790Z,25.99
2018-07-13T11:46:17.802Z,26.00
2018-07-13T11:47:17.812Z,26.10
2018-07-13T11:48:17.825Z,26.09
2018-07-13T11:49:17.835Z,25.80
2018-07-13T11:50:17.846Z,25.87
2018-07-13T11:51:17.857Z,25.77
2018-07-13T11:52:17.868Z,25.75
2018-07-13T11:53:17.878Z,25.69
2018-07-13T11:54:17.891Z,25.44
2018-07-13T11:55:17.900Z,25.16
2018-07-13T11:56:17.910Z,25.43
2018-07-13T11:57:17.922Z,25.72
2018-07-13T11:58:17.930Z,25.90
2018-07-13T11:59:17.941Z,26.09
2018-07-13T12:00:17.952Z,26.36
2018-07-13T12:01:17.961Z,26.41
2018-07-13T12:02:17.972Z,26.38
2018-07-13T12:03:17.983Z,26.41
2018-07-13T12:04:17.996Z,26.38
2018-07-13T12:05:18.006Z,26.19
2018-07-13T12:06:18.012Z,26.26
2018-07-13T12:07:18.022Z,26.22
2018-07-13T12:08:18.033Z,26.36
2018-07-13T12:09:18.042Z,26.26
2018-07-13T12:10:18.051Z,25.98
2018-07-13T12:11:18.061Z,25.95
2018-07-13T12:12:18.071Z,26.16
2018-07-13T12:13:18.081Z,26.21
2018-07-13T12:14:18.140Z,26.47
2018-07-13T12:15:18.100Z,26.60
2018-07-13T12:16:18.109Z,26.71
2018-07-13T12:17:18.179Z,26.62
2018-07-13T12:18:18.128Z,26.52
2018-07-13T12:19:18.138Z,26.51
2018-07-13T12:20:18.149Z,26.36
2018-07-13T12:21:18.157Z,26.34
2018-07-13T12:22:18.167Z,26.09
2018-07-13T12:23:18.211Z,26.06
2018-07-13T12:24:18.188Z,26.06
2018-07-13T12:25:18.196Z,26.06
2018-07-13T12:26:18.208Z,26.09
2018-07-13T12:27:18.215Z,26.29
2018-07-13T12:28:18.226Z,26.28
2018-07-13T12:29:18.233Z,26.25
2018-07-13T12:30:18.247Z,26.00
2018-07-13T12:31:18.250Z,26.15
2018-07-13T12:32:18.327Z,26.33
2018-07-13T12:33:18.268Z,26.23
2018-07-13T12:34:18.277Z,26.25
2018-07-13T12:35:18.287Z,26.25
2018-07-13T12:36:18.296Z,26.36
2018-07-13T12:37:18.307Z,26.38
2018-07-13T12:38:18.315Z,26.45
2018-07-13T12:39:18.323Z,26.55
2018-07-13T12:40:18.332Z,26.62
2018-07-13T12:41:18.343Z,26.71
2018-07-13T12:42:18.354Z,26.97
2018-07-13T12:43:18.361Z,27.08
2018-07-13T12:44:18.370Z,27.02
2018-07-13T12:45:18.378Z,27.14
2018-07-13T12:46:18.389Z,27.32
2018-07-13T12:47:18.396Z,27.37
2018-07-13T12:48:18.407Z,27.48
2018-07-13T12:49:18.418Z,27.42
2018-07-13T12:50:18.423Z,27.44
2018-07-13T12:51:18.433Z,27.55
2018-07-13T12:52:18.441Z,27.35
2018-07-13T12:53:18.452Z,27.12